createdAt,value
2022-12-31T00:01:45.681Z,86.50
2022-12-31T00:04:26.879Z,87.04
2022-12-31T00:07:26.280Z,86.76
2022-12-31T00:10:27.822Z,86.76
2022-12-31T00:13:17.062Z,87.22
2022-12-31T00:16:29.895Z,87.66
2022-12-31T00:19:18.851Z,87.52
2022-12-31T00:22:16.280Z,87.76
2022-12-31T00:24:48.140Z,87.40
2022-12-31T00:27:52.773Z,87.67
2022-12-31T00:30:52.514Z,87.77
2022-12-31T00:34:10.933Z,87.97
2022-12-31T00:36:51.254Z,88.13
2022-12-31T00:39:25.278Z,88.24
2022-12-31T00:41:57.888Z,88.71
2022-12-31T00:44:54.811Z,88.45
2022-12-31T00:47:53.078Z,88.27
2022-12-31T00:50:45.090Z,88.30
2022-12-31T00:53:49.988Z,88.29
2022-12-31T00:56:42.198Z,87.91
2022-12-31T01:02:23.803Z,88.20
2022-12-31T01:05:06.253Z,88.38
2022-12-31T01:08:12.619Z,88.23
2022-12-31T01:11:35.539Z,88.16
2022-12-31T01:21:04.028Z,87.88
2022-12-31T01:24:42.074Z,87.68
2022-12-31T01:27:49.169Z,87.66
2022-12-31T01:30:22.207Z,87.36
2022-12-31T01:36:56.142Z,87.33
2022-12-31T01:39:43.671Z,87.29
2022-12-31T01:42:20.960Z,86.84
2022-12-31T01:46:46.706Z,87.06
2022-12-31T01:48:50.793Z,87.19
2022-12-31T02:02:24.445Z,86.55
2022-12-31T02:05:19.425Z,86.38
2022-12-31T02:08:15.484Z,86.44
2022-12-31T02:11:46.805Z,86.35
2022-12-31T02:15:40.642Z,86.27
2022-12-31T02:19:05.600Z,86.08
2022-12-31T02:22:25.077Z,85.96
2022-12-31T02:26:02.519Z,85.62
2022-12-31T02:33:23.925Z,85.40
2022-12-31T02:36:50.828Z,85.50
2022-12-31T02:39:36.536Z,85.32
2022-12-31T02:42:38.867Z,85.57
2022-12-31T02:52:42.714Z,85.83
2022-12-31T02:56:15.851Z,85.83
2022-12-31T03:03:32.082Z,85.61
2022-12-31T03:06:51.254Z,85.46
2022-12-31T03:13:22.443Z,85.21
2022-12-31T03:16:08.026Z,85.84
2022-12-31T03:19:02.771Z,85.73
2022-12-31T03:22:25.550Z,85.79
2022-12-31T03:26:07.815Z,86.24
2022-12-31T03:29:22.483Z,86.56
2022-12-31T03:32:20.814Z,86.20
2022-12-31T03:35:19.238Z,86.50
2022-12-31T03:42:17.335Z,86.69
2022-12-31T03:45:27.553Z,86.86
2022-12-31T03:49:25.245Z,87.09
2022-12-31T03:52:30.559Z,87.18
2022-12-31T03:55:43.400Z,87.16
2022-12-31T03:59:07.149Z,87.36
2022-12-31T04:12:37.684Z,88.01
2022-12-31T04:15:47.543Z,88.19
2022-12-31T04:19:15.664Z,88.57
2022-12-31T04:23:00.248Z,88.31
2022-12-31T04:26:03.421Z,88.96
2022-12-31T04:35:47.849Z,89.17
2022-12-31T04:38:43.393Z,89.28
2022-12-31T04:41:57.462Z,89.45
2022-12-31T04:45:04.916Z,89.50
2022-12-31T04:58:58.062Z,89.61
2022-12-31T05:05:27.174Z,89.55
2022-12-31T05:08:36.660Z,89.29
2022-12-31T05:12:02.837Z,89.68
2022-12-31T05:15:15.198Z,89.48
2022-12-31T05:19:00.769Z,89.65
2022-12-31T05:22:12.389Z,89.72
2022-12-31T05:32:43.260Z,89.80
2022-12-31T05:36:54.618Z,90.04
2022-12-31T05:39:27.876Z,90.39
2022-12-31T05:49:37.504Z,90.28
2022-12-31T05:53:03.793Z,90.22
2022-12-31T05:56:06.812Z,90.28
2022-12-31T06:02:28.367Z,90.10
2022-12-31T06:05:25.866Z,90.29
2022-12-31T06:08:14.846Z,90.34
2022-12-31T06:18:31.102Z,90.97
2022-12-31T06:21:11.415Z,90.45
2022-12-31T06:23:50.566Z,90.82
2022-12-31T06:26:52.544Z,90.81
2022-12-31T06:30:14.532Z,90.80
2022-12-31T06:33:06.484Z,90.60
2022-12-31T06:38:51.958Z,90.88
2022-12-31T06:41:28.550Z,91.23
2022-12-31T06:44:19.178Z,91.65
2022-12-31T06:46:52.432Z,91.82
2022-12-31T06:49:26.686Z,91.95
2022-12-31T06:52:01.332Z,91.75
2022-12-31T06:54:45.112Z,92.26
2022-12-31T06:57:30.440Z,92.42
2022-12-31T07:00:00.725Z,92.71
2022-12-31T07:03:10.680Z,93.45
2022-12-31T07:06:03.994Z,94.33
2022-12-31T07:08:36.693Z,95.41
2022-12-31T07:11:12.491Z,96.56
2022-12-31T07:14:07.205Z,96.61
2022-12-31T07:17:14.302Z,97.59
2022-12-31T07:20:03.033Z,97.64
2022-12-31T07:22:31.672Z,98.72
2022-12-31T07:25:00.551Z,99.65
2022-12-31T07:28:08.082Z,99.46
2022-12-31T07:30:54.947Z,99.96
2022-12-31T07:33:49.039Z,99.69
2022-12-31T07:36:20.340Z,99.91
2022-12-31T07:39:07.395Z,99.88
2022-12-31T07:41:51.632Z,100.00
2022-12-31T07:44:23.323Z,100.00
2022-12-31T07:46:58.021Z,100.00
2022-12-31T07:49:29.804Z,100.00
2022-12-31T07:51:58.389Z,100.00
2022-12-31T07:54:26.721Z,100.00
2022-12-31T07:56:55.462Z,100.00
2022-12-31T07:59:51.975Z,100.00
2022-12-31T08:02:50.456Z,100.00
2022-12-31T08:05:31.094Z,99.99
2022-12-31T08:08:25.335Z,100.00
2022-12-31T08:11:09.017Z,99.68
2022-12-31T08:13:38.572Z,99.11
2022-12-31T08:16:13.595Z,98.59
2022-12-31T08:18:42.759Z,98.55
2022-12-31T08:21:41.465Z,98.05
2022-12-31T08:24:39.095Z,97.43
2022-12-31T08:27:29.806Z,96.93
2022-12-31T08:30:17.506Z,96.23
2022-12-31T08:33:09.596Z,96.03
2022-12-31T08:35:56.553Z,95.50
2022-12-31T08:38:50.002Z,95.47
2022-12-31T08:41:29.121Z,94.91
2022-12-31T08:44:06.812Z,94.91
2022-12-31T08:46:50.748Z,94.39
2022-12-31T08:49:19.997Z,94.55
2022-12-31T08:51:48.694Z,93.92
2022-12-31T08:54:17.477Z,94.14
2022-12-31T08:56:57.483Z,94.15
2022-12-31T08:59:52.725Z,93.49
2022-12-31T09:02:34.494Z,92.99
2022-12-31T09:05:17.869Z,92.54
2022-12-31T09:08:14.721Z,92.38
2022-12-31T09:11:26.427Z,92.28
2022-12-31T09:14:21.572Z,91.79
2022-12-31T09:17:21.318Z,91.82
2022-12-31T09:19:50.247Z,91.18
2022-12-31T09:22:19.222Z,90.78
2022-12-31T09:24:48.022Z,90.40
2022-12-31T09:27:33.343Z,90.46
2022-12-31T09:30:17.831Z,90.18
2022-12-31T09:33:08.532Z,89.91
2022-12-31T09:36:03.399Z,89.12
2022-12-31T09:38:49.104Z,89.05
2022-12-31T09:41:36.175Z,88.23
2022-12-31T09:44:07.587Z,87.73
2022-12-31T09:46:59.236Z,87.35
2022-12-31T09:49:57.337Z,87.34
2022-12-31T09:52:48.647Z,86.90
2022-12-31T09:55:45.750Z,86.72
2022-12-31T09:58:35.577Z,86.57
2022-12-31T10:01:22.860Z,86.72
2022-12-31T10:03:51.602Z,86.08
2022-12-31T10:06:32.451Z,85.88
2022-12-31T10:09:26.559Z,85.67
2022-12-31T10:12:19.321Z,85.51
2022-12-31T10:15:29.269Z,85.46
2022-12-31T10:18:23.508Z,85.04
2022-12-31T10:21:27.561Z,85.20
2022-12-31T10:23:58.470Z,84.61
2022-12-31T10:27:10.680Z,84.67
2022-12-31T10:29:58.223Z,84.78
2022-12-31T10:32:34.999Z,84.81
2022-12-31T10:35:30.621Z,84.97
2022-12-31T10:39:01.198Z,84.30
2022-12-31T10:41:59.146Z,84.32
2022-12-31T10:44:57.548Z,84.40
2022-12-31T10:47:41.885Z,84.36
2022-12-31T10:50:41.982Z,84.16
2022-12-31T10:53:34.776Z,84.24
2022-12-31T10:56:15.534Z,84.04
2022-12-31T10:59:10.573Z,83.76
2022-12-31T11:02:11.133Z,84.03
2022-12-31T11:04:59.497Z,83.85
2022-12-31T11:08:06.426Z,84.01
2022-12-31T11:11:08.745Z,83.63
2022-12-31T11:13:58.295Z,83.36
2022-12-31T11:16:30.033Z,83.40
2022-12-31T11:19:17.962Z,83.41
2022-12-31T11:22:13.566Z,83.16
2022-12-31T11:24:51.518Z,82.56
2022-12-31T11:27:54.128Z,82.53
2022-12-31T11:30:33.085Z,82.49
2022-12-31T11:33:15.383Z,82.30
2022-12-31T11:36:02.221Z,82.32
2022-12-31T11:38:40.994Z,82.18
2022-12-31T11:41:19.767Z,81.88
2022-12-31T11:44:13.136Z,81.73
2022-12-31T11:46:41.783Z,81.57
2022-12-31T11:49:50.908Z,81.46
2022-12-31T11:52:47.044Z,80.98
2022-12-31T11:55:18.311Z,80.88
2022-12-31T11:57:51.908Z,80.96
2022-12-31T12:00:27.164Z,80.49
2022-12-31T12:03:08.599Z,80.16
2022-12-31T12:05:39.647Z,79.55
2022-12-31T12:08:08.058Z,79.61
2022-12-31T12:10:47.660Z,79.40
2022-12-31T12:13:27.627Z,79.57
2022-12-31T12:16:03.093Z,79.49
2022-12-31T12:18:51.225Z,79.09
2022-12-31T12:21:33.019Z,78.95
2022-12-31T12:24:19.255Z,79.05
2022-12-31T12:26:50.750Z,78.40
2022-12-31T12:29:24.705Z,78.09
2022-12-31T12:32:01.739Z,77.74
2022-12-31T12:34:32.361Z,77.05
2022-12-31T12:37:01.374Z,76.63
2022-12-31T12:39:33.519Z,77.23
2022-12-31T12:42:14.192Z,77.37
2022-12-31T12:44:47.062Z,76.78
2022-12-31T12:47:17.905Z,77.29
2022-12-31T12:49:47.926Z,77.15
2022-12-31T12:52:25.313Z,77.47
2022-12-31T12:55:03.602Z,76.73
2022-12-31T12:58:00.158Z,77.02
2022-12-31T13:01:04.114Z,76.69
2022-12-31T13:07:20.274Z,76.97
2022-12-31T13:10:14.674Z,77.10
2022-12-31T13:13:25.896Z,77.11
2022-12-31T13:16:25.472Z,77.15
2022-12-31T13:19:16.552Z,77.08
2022-12-31T13:22:25.710Z,77.21
2022-12-31T13:25:26.993Z,77.05
2022-12-31T13:28:05.896Z,77.11
2022-12-31T13:30:45.995Z,77.18
2022-12-31T13:33:31.083Z,76.92
2022-12-31T13:36:12.890Z,76.92
2022-12-31T13:38:57.501Z,76.44
2022-12-31T13:41:47.652Z,76.51
2022-12-31T13:44:28.314Z,75.84
2022-12-31T13:47:16.687Z,75.84
2022-12-31T13:49:59.767Z,75.99
2022-12-31T13:52:38.023Z,75.47
2022-12-31T13:55:15.189Z,75.17
2022-12-31T13:57:54.736Z,74.86
2022-12-31T14:00:50.253Z,74.27
2022-12-31T14:04:10.598Z,73.73
2022-12-31T14:06:50.594Z,73.41
2022-12-31T14:09:34.310Z,73.09
2022-12-31T14:12:29.208Z,72.34
2022-12-31T14:15:27.852Z,72.20
2022-12-31T14:18:13.024Z,70.94
2022-12-31T14:21:04.987Z,70.70
2022-12-31T14:24:01.602Z,71.04
2022-12-31T14:26:41.096Z,70.49
2022-12-31T14:29:12.834Z,70.32
2022-12-31T14:31:55.465Z,69.93
2022-12-31T14:34:48.092Z,69.48
2022-12-31T14:37:45.075Z,69.44
2022-12-31T14:40:52.396Z,69.62
2022-12-31T14:43:43.128Z,69.67
2022-12-31T14:47:06.705Z,69.25
2022-12-31T14:49:43.800Z,69.38
2022-12-31T14:52:35.080Z,69.03
2022-12-31T14:55:36.812Z,68.67
2022-12-31T14:58:50.583Z,68.89
2022-12-31T15:01:29.517Z,68.95
2022-12-31T15:04:19.287Z,68.62
2022-12-31T15:08:26.690Z,69.18
2022-12-31T15:11:34.686Z,69.09
2022-12-31T15:18:46.079Z,69.05
2022-12-31T15:21:27.925Z,68.98
2022-12-31T15:23:58.715Z,68.54
2022-12-31T15:26:34.981Z,68.28
2022-12-31T15:29:08.487Z,68.46
2022-12-31T15:31:45.030Z,68.44
2022-12-31T15:34:25.856Z,68.34
2022-12-31T15:37:00.510Z,68.37
2022-12-31T15:39:32.535Z,68.23
2022-12-31T15:45:03.093Z,68.71
2022-12-31T15:47:31.855Z,69.00
2022-12-31T15:50:07.361Z,68.74
2022-12-31T15:52:53.902Z,68.96
2022-12-31T15:55:28.044Z,69.09
2022-12-31T15:58:02.659Z,69.22
2022-12-31T16:00:53.318Z,69.32
2022-12-31T16:03:25.190Z,69.20
2022-12-31T16:06:00.233Z,69.22
2022-12-31T16:08:32.663Z,69.20
2022-12-31T16:11:07.376Z,69.10
2022-12-31T16:13:41.367Z,68.78
2022-12-31T16:16:20.148Z,69.09
2022-12-31T16:18:50.480Z,69.00
2022-12-31T16:21:38.969Z,68.90
2022-12-31T16:24:23.728Z,68.87
2022-12-31T16:26:55.229Z,69.18
2022-12-31T16:29:25.188Z,68.73
2022-12-31T16:31:54.713Z,68.84
2022-12-31T16:34:26.316Z,68.77
2022-12-31T16:37:04.695Z,68.98
2022-12-31T16:39:35.948Z,68.70
2022-12-31T16:42:22.025Z,68.43
2022-12-31T16:44:52.941Z,68.71
2022-12-31T16:47:34.465Z,68.30
2022-12-31T16:50:08.145Z,68.94
2022-12-31T16:52:49.621Z,68.96
2022-12-31T16:55:19.967Z,68.99
2022-12-31T16:57:56.696Z,68.91
2022-12-31T17:00:26.960Z,69.09
2022-12-31T17:03:15.830Z,68.67
2022-12-31T17:06:07.533Z,69.07
2022-12-31T17:08:56.086Z,69.19
2022-12-31T17:11:34.055Z,69.51
2022-12-31T17:14:05.731Z,69.69
2022-12-31T17:16:36.912Z,69.60
2022-12-31T17:19:05.517Z,69.91
2022-12-31T17:21:34.165Z,69.93
2022-12-31T17:24:06.798Z,70.12
2022-12-31T17:26:38.380Z,70.24
2022-12-31T17:29:08.332Z,70.19
2022-12-31T17:31:43.434Z,70.61
2022-12-31T17:34:17.272Z,70.56
2022-12-31T19:20:46.012Z,72.63
2022-12-31T19:23:20.677Z,72.69
2022-12-31T19:25:50.169Z,72.92
2022-12-31T19:28:21.296Z,72.91
2022-12-31T19:30:49.967Z,73.13
2022-12-31T19:33:18.219Z,73.14
2022-12-31T19:35:47.185Z,73.25
2022-12-31T19:38:22.312Z,73.25
2022-12-31T19:40:52.266Z,73.33
2022-12-31T19:43:23.516Z,73.33
2022-12-31T19:45:53.730Z,73.48
2022-12-31T19:48:32.103Z,73.60
2022-12-31T19:51:01.153Z,73.66
2022-12-31T19:53:29.435Z,73.58
2022-12-31T19:55:57.670Z,73.62
2022-12-31T19:58:27.179Z,73.60
2022-12-31T20:01:02.436Z,73.74
2022-12-31T20:03:33.383Z,73.71
2022-12-31T20:06:09.845Z,73.79
2022-12-31T20:08:39.730Z,73.83
2022-12-31T20:11:10.177Z,73.80
2022-12-31T20:13:39.774Z,73.92
2022-12-31T20:16:14.252Z,73.77
2022-12-31T20:18:44.629Z,73.93
2022-12-31T20:21:15.676Z,73.82
2022-12-31T20:23:43.941Z,73.90
2022-12-31T20:26:12.825Z,73.87
2022-12-31T20:28:41.607Z,73.87
2022-12-31T20:31:16.316Z,73.94
2022-12-31T20:33:45.140Z,73.94
2022-12-31T20:36:16.202Z,73.93
2022-12-31T20:38:45.128Z,74.01
2022-12-31T20:41:19.327Z,74.07
2022-12-31T20:43:48.940Z,74.02
2022-12-31T20:46:25.440Z,73.96
2022-12-31T20:48:56.760Z,73.91
2022-12-31T20:51:27.078Z,73.85
2022-12-31T20:53:58.220Z,73.87
2022-12-31T20:56:29.941Z,74.05
2022-12-31T20:58:58.260Z,73.93
2022-12-31T21:01:41.467Z,74.02
2022-12-31T21:04:15.436Z,74.07
2022-12-31T21:06:44.228Z,74.30
2022-12-31T21:09:12.475Z,74.45
2022-12-31T21:11:59.432Z,74.50
2022-12-31T21:14:27.700Z,74.59
2022-12-31T21:16:55.929Z,74.65
2022-12-31T21:19:24.578Z,74.87
2022-12-31T21:21:53.191Z,74.97
2022-12-31T21:24:24.028Z,75.22
2022-12-31T21:26:55.716Z,75.40
2022-12-31T21:29:23.894Z,75.36
2022-12-31T21:31:53.107Z,75.47
2022-12-31T21:34:21.970Z,75.35
2022-12-31T21:36:50.205Z,75.56
2022-12-31T21:39:18.379Z,75.70
2022-12-31T21:41:52.697Z,75.86
2022-12-31T21:44:26.273Z,75.99
2022-12-31T21:47:34.961Z,75.95
2022-12-31T21:50:06.895Z,76.05
2022-12-31T21:52:36.674Z,76.09
2022-12-31T21:55:24.954Z,76.10
2022-12-31T21:58:25.221Z,76.16
2022-12-31T22:01:00.552Z,76.00
2022-12-31T22:03:28.957Z,75.93
2022-12-31T22:06:14.778Z,75.87
2022-12-31T22:08:45.879Z,75.89
2022-12-31T22:11:16.108Z,75.76
2022-12-31T22:13:45.326Z,75.72
2022-12-31T22:16:14.543Z,75.59
2022-12-31T22:18:44.340Z,75.64
2022-12-31T22:21:20.226Z,75.41
2022-12-31T22:23:52.485Z,75.33
2022-12-31T22:26:25.012Z,75.14
2022-12-31T22:28:54.861Z,75.05
2022-12-31T22:31:28.195Z,75.05
2022-12-31T22:33:58.371Z,74.90
2022-12-31T22:36:26.899Z,74.87
2022-12-31T22:38:58.340Z,74.80
2022-12-31T22:41:28.345Z,74.75
2022-12-31T22:44:03.570Z,74.53
2022-12-31T22:46:33.678Z,74.49
2022-12-31T22:49:05.107Z,74.24
2022-12-31T22:51:56.484Z,74.27
2022-12-31T22:54:21.923Z,74.09
2022-12-31T22:56:50.151Z,74.04
2022-12-31T22:59:18.288Z,73.81
2022-12-31T23:01:48.758Z,73.73
2022-12-31T23:04:17.692Z,73.55
2022-12-31T23:06:46.700Z,73.51
2022-12-31T23:09:35.672Z,73.29
2022-12-31T23:12:10.411Z,73.26
2022-12-31T23:14:57.446Z,73.18
2022-12-31T23:17:48.177Z,73.02
2022-12-31T23:20:39.777Z,73.01
2022-12-31T23:23:12.798Z,72.77
2022-12-31T23:25:41.544Z,72.91
2022-12-31T23:28:14.166Z,72.91
2022-12-31T23:30:43.608Z,72.92
2022-12-31T23:33:29.739Z,72.82
2022-12-31T23:36:05.885Z,72.40
2022-12-31T23:38:34.322Z,72.50
2022-12-31T23:41:15.106Z,72.14
2022-12-31T23:43:44.930Z,72.07
2022-12-31T23:46:14.144Z,71.82
2022-12-31T23:48:43.111Z,71.59
2022-12-31T23:51:11.890Z,71.17
2022-12-31T23:53:40.129Z,71.12
2022-12-31T23:56:15.012Z,71.04
2022-12-31T23:58:44.633Z,70.21
